Time;durP1;ratioP1;P1;durP2;ratioP2;P2;SDS_P1;SDS_P2;PMS_P1;PMS_P2;Temp;Humidity;BMP_temperature;BMP_pressure;BME280_temperature;BME280_humidity;BME280_pressure;Samples;Min_cycle;Max_cycle;Signal;HPM_P1;HPM_P2
2024/03/04 00:01:09;;;;;;;48.13;28.98;;;;;;;6.83;100.00;99933.59;5085923;28;20416;-78
2024/03/04 00:03:34;;;;;;;51.10;29.08;;;;;;;6.74;100.00;99950.69;5085989;28;20508;-78
2024/03/04 00:06:00;;;;;;;51.58;29.40;;;;;;;6.63;100.00;99954.69;5068179;28;20170;-78
2024/03/04 00:08:25;;;;;;;46.42;28.60;;;;;;;6.53;100.00;99926.91;5085608;28;20452;-78
2024/03/04 00:10:51;;;;;;;47.92;25.95;;;;;;;6.76;100.00;99956.59;5085973;28;20036;-78
2024/03/04 00:13:17;;;;;;;42.40;24.85;;;;;;;6.96;100.00;99945.25;5088815;28;20028;-78
2024/03/04 00:15:43;;;;;;;48.47;28.23;;;;;;;6.93;100.00;99950.97;5071130;28;20139;-79
2024/03/04 00:18:08;;;;;;;46.45;27.58;;;;;;;6.87;100.00;99949.09;5089221;28;20035;-78
2024/03/04 00:20:34;;;;;;;45.25;25.23;;;;;;;6.83;100.00;99953.97;5089256;28;20047;-78
2024/03/04 00:23:00;;;;;;;47.80;26.50;;;;;;;6.91;100.00;99961.75;5089761;28;20029;-79
2024/03/04 00:25:25;;;;;;;49.63;25.95;;;;;;;6.82;100.00;99952.31;5088933;28;20028;-78
2024/03/04 00:27:51;;;;;;;47.67;26.30;;;;;;;6.49;100.00;99933.63;5088651;28;20048;-79
2024/03/04 00:30:17;;;;;;;43.40;25.45;;;;;;;6.71;100.00;99969.63;5089335;28;20024;-78
2024/03/04 00:32:42;;;;;;;40.92;23.77;;;;;;;6.63;100.00;99945.94;5089274;28;20031;-78
2024/03/04 00:35:10;;;;;;;41.42;22.45;;;;;;;6.88;100.00;99953.38;5088960;28;20777;-78
2024/03/04 00:37:36;;;;;;;42.55;23.65;;;;;;;6.60;100.00;99933.09;5088799;28;20050;-79
2024/03/04 00:40:06;;;;;;;43.50;23.55;;;;;;;6.78;100.00;99936.03;5089160;28;20032;-78
2024/03/04 00:42:32;;;;;;;44.15;23.25;;;;;;;6.66;100.00;99940.25;5070723;28;20032;-76
2024/03/04 00:45:00;;;;;;;46.25;23.73;;;;;;;6.82;100.00;99949.69;5088748;28;20532;-78
2024/03/04 00:47:26;;;;;;;48.17;25.33;;;;;;;6.81;100.00;99951.53;5070524;28;20510;-77
2024/03/04 00:49:52;;;;;;;55.45;27.23;;;;;;;6.87;100.00;99944.63;5088951;28;20568;-78
2024/03/04 00:52:18;;;;;;;54.92;26.60;;;;;;;6.90;100.00;99954.00;5088847;28;20047;-78
2024/03/04 00:54:44;;;;;;;51.10;27.13;;;;;;;6.65;100.00;99925.34;5070503;28;20028;-78
2024/03/04 00:57:09;;;;;;;49.97;24.20;;;;;;;6.78;100.00;99938.69;5088136;28;20084;-78
2024/03/04 00:59:37;;;;;;;49.30;25.65;;;;;;;6.73;100.00;99942.94;5088692;28;20149;-78
2024/03/04 01:02:04;;;;;;;52.00;24.98;;;;;;;6.28;100.00;99887.66;5088486;28;20047;-79
2024/03/04 01:04:29;;;;;;;52.78;25.25;;;;;;;6.55;100.00;99936.28;5070479;28;20032;-78
2024/03/04 01:06:56;;;;;;;61.13;27.08;;;;;;;6.39;100.00;99928.66;5069906;28;20433;-78
2024/03/04 01:09:21;;;;;;;58.17;26.73;;;;;;;6.72;100.00;99944.75;5070532;28;20902;-78
2024/03/04 01:11:47;;;;;;;61.13;26.00;;;;;;;6.96;100.00;99934.66;5088366;28;20043;-78
2024/03/04 01:14:12;;;;;;;57.38;26.08;;;;;;;6.90;100.00;99938.91;5088051;28;20394;-79
2024/03/04 01:16:41;;;;;;;57.53;27.25;;;;;;;6.79;100.00;99937.66;5069560;28;20115;-78
2024/03/04 01:19:07;;;;;;;58.22;26.98;;;;;;;6.73;100.00;99951.69;5088122;28;20074;-78
2024/03/04 01:21:32;;;;;;;63.63;26.00;;;;;;;6.30;100.00;99903.38;5069723;28;20036;-77
2024/03/04 01:23:58;;;;;;;60.17;27.35;;;;;;;6.52;100.00;99938.50;5087322;28;20032;-79
2024/03/04 01:26:23;;;;;;;66.70;29.80;;;;;;;6.44;100.00;99919.13;5088284;28;20036;-78
2024/03/04 01:28:49;;;;;;;71.03;28.63;;;;;;;6.49;100.00;99930.97;5087432;28;20563;-77
2024/03/04 01:31:15;;;;;;;66.07;27.20;;;;;;;6.61;100.00;99938.16;5088147;28;20063;-78
2024/03/04 01:33:47;;;;;;;72.00;29.25;;;;;;;6.59;100.00;99931.44;5069525;28;20164;-78
2024/03/04 01:36:12;;;;;;;76.38;29.42;;;;;;;6.81;100.00;99929.50;5069668;28;20036;-78
2024/03/04 01:38:41;;;;;;;69.78;28.15;;;;;;;6.63;100.00;99924.72;5087539;28;20051;-78
2024/03/04 01:41:06;;;;;;;71.22;28.40;;;;;;;6.88;100.00;99926.88;5087760;28;20024;-78
2024/03/04 01:43:31;;;;;;;87.72;30.98;;;;;;;6.57;100.00;99928.97;5087837;28;20658;-78
2024/03/04 01:45:57;;;;;;;76.10;30.90;;;;;;;6.81;100.00;99919.72;5087446;28;20093;-77
2024/03/04 01:48:23;;;;;;;72.05;29.10;;;;;;;6.82;100.00;99910.75;5087499;28;20402;-79
2024/03/04 01:50:51;;;;;;;79.05;31.60;;;;;;;6.71;100.00;99903.34;5087668;28;20089;-78
2024/03/04 01:53:18;;;;;;;82.97;31.90;;;;;;;6.93;100.00;99941.19;5087669;28;20040;-78
2024/03/04 01:55:52;;;;;;;102.80;35.70;;;;;;;6.84;100.00;99915.84;5086928;28;20119;-78
2024/03/04 01:58:18;;;;;;;89.07;33.33;;;;;;;7.06;100.00;99948.34;5068533;28;20051;-78
2024/03/04 02:00:48;;;;;;;84.43;31.75;;;;;;;6.72;100.00;99942.13;5087623;28;20036;-78
2024/03/04 02:03:16;;;;;;;87.97;30.80;;;;;;;6.83;100.00;99938.06;5087561;28;20040;-78
2024/03/04 02:05:43;;;;;;;78.70;32.30;;;;;;;6.93;100.00;99953.63;5087376;28;20020;-78
2024/03/04 02:08:11;;;;;;;85.57;33.25;;;;;;;7.12;100.00;99926.34;5086985;28;20036;-78
2024/03/04 02:10:37;;;;;;;79.22;30.55;;;;;;;7.12;100.00;99950.22;5087271;28;20035;-77
2024/03/04 02:13:03;;;;;;;86.78;32.72;;;;;;;7.17;100.00;99947.78;5068865;28;20040;-78
2024/03/04 02:15:28;;;;;;;86.68;32.00;;;;;;;6.88;100.00;99932.97;5086834;28;20020;-78
2024/03/04 02:17:54;;;;;;;90.70;34.83;;;;;;;6.86;100.00;99934.19;5068439;28;20038;-79
2024/03/04 02:20:23;;;;;;;89.82;33.25;;;;;;;6.73;100.00;99888.06;5087203;28;20056;-78
2024/03/04 02:22:48;;;;;;;90.55;33.45;;;;;;;6.82;100.00;99916.06;5069224;28;20088;-78
2024/03/04 02:25:14;;;;;;;90.53;33.38;;;;;;;6.95;100.00;99925.09;5086776;28;20039;-79
2024/03/04 02:27:39;;;;;;;79.57;32.85;;;;;;;6.92;100.00;99944.81;5086085;28;20119;-78
2024/03/04 02:30:07;;;;;;;87.30;31.58;;;;;;;6.70;100.00;99949.44;5086670;28;20043;-78
2024/03/04 02:32:34;;;;;;;75.63;28.98;;;;;;;6.63;100.00;99941.44;5087009;28;20031;-78
2024/03/04 02:35:04;;;;;;;98.15;30.92;;;;;;;6.54;100.00;99944.44;5086343;28;20085;-78
2024/03/04 02:37:31;;;;;;;89.47;26.25;;;;;;;6.48;100.00;99956.66;5086700;28;20032;-77
2024/03/04 02:39:57;;;;;;;120.15;28.88;;;;;;;6.12;100.00;99915.25;5086679;28;20028;-78
2024/03/04 02:42:22;;;;;;;125.90;29.70;;;;;;;6.42;100.00;99950.28;5068693;28;20035;-78
2024/03/04 02:44:48;;;;;;;87.97;27.25;;;;;;;6.37;100.00;99949.22;5068648;28;20540;-78
2024/03/04 02:47:14;;;;;;;85.97;27.60;;;;;;;6.28;100.00;99956.50;5068339;28;20067;-78
2024/03/04 02:49:40;;;;;;;72.85;26.25;;;;;;;6.10;100.00;99938.47;5086581;28;20086;-78
2024/03/04 02:52:05;;;;;;;85.90;28.30;;;;;;;6.29;100.00;99941.44;5086485;28;20441;-78
2024/03/04 02:54:31;;;;;;;71.82;27.13;;;;;;;6.19;100.00;99957.66;5086456;28;20089;-79
2024/03/04 02:56:56;;;;;;;59.67;27.92;;;;;;;5.88;100.00;99928.88;5086511;28;20039;-78
2024/03/04 02:59:22;;;;;;;105.82;32.50;;;;;;;6.12;100.00;99962.09;5086510;28;20035;-78
2024/03/04 03:01:48;;;;;;;95.78;31.63;;;;;;;6.00;100.00;99952.03;5068422;28;20035;-78
2024/03/04 03:04:15;;;;;;;101.80;32.00;;;;;;;6.04;100.00;99955.13;5068258;28;20028;-78
2024/03/04 03:06:42;;;;;;;93.25;34.38;;;;;;;5.89;100.00;99904.88;5068165;28;20028;-78
2024/03/04 03:09:11;;;;;;;102.32;36.35;;;;;;;6.23;100.00;99945.66;5067977;28;20027;-78
2024/03/04 03:11:37;;;;;;;80.15;32.85;;;;;;;6.41;100.00;99958.44;5086655;28;20028;-78
2024/03/04 03:14:03;;;;;;;103.85;36.05;;;;;;;6.11;100.00;99945.41;5086221;28;20102;-78
2024/03/04 03:16:29;;;;;;;108.72;35.13;;;;;;;6.12;100.00;99962.91;5086151;28;20532;-78
2024/03/04 03:18:57;;;;;;;124.35;35.42;;;;;;;6.23;100.00;99954.44;5085641;28;20052;-78
2024/03/04 03:21:26;;;;;;;82.90;31.77;;;;;;;6.12;100.00;99940.91;5086649;28;20032;-78
2024/03/04 03:23:52;;;;;;;90.72;31.23;;;;;;;6.15;100.00;99935.22;5086461;28;20489;-78
2024/03/04 03:26:17;;;;;;;85.75;31.05;;;;;;;6.26;100.00;99932.06;5068193;28;20032;-78
2024/03/04 03:28:43;;;;;;;81.95;31.90;;;;;;;6.40;100.00;99957.63;5086164;28;20036;-79
2024/03/04 03:31:09;;;;;;;100.03;31.60;;;;;;;6.41;100.00;99955.78;5068125;28;20024;-79
2024/03/04 03:33:35;;;;;;;70.15;28.77;;;;;;;6.32;100.00;99957.75;5068074;28;20051;-78
2024/03/04 03:36:02;;;;;;;84.90;29.77;;;;;;;5.98;100.00;99956.69;5086208;28;20028;-78
2024/03/04 03:38:27;;;;;;;92.93;29.92;;;;;;;6.21;100.00;99947.69;5067904;28;20174;-76
2024/03/04 03:40:53;;;;;;;95.22;30.02;;;;;;;6.04;100.00;99971.00;5085814;28;20103;-78
2024/03/04 03:43:18;;;;;;;83.28;30.42;;;;;;;6.03;100.00;99964.06;5086264;28;20040;-78
2024/03/04 03:45:43;;;;;;;84.68;29.27;;;;;;;5.94;100.00;99968.63;5067901;28;20020;-77
2024/03/04 03:48:10;;;;;;;100.75;33.67;;;;;;;5.91;100.00;99969.03;5070390;28;20069;-78
2024/03/04 03:50:35;;;;;;;82.45;33.00;;;;;;;6.13;100.00;99963.72;5071581;28;20020;-77
2024/03/04 03:53:01;;;;;;;114.22;36.42;;;;;;;5.97;100.00;99970.13;5090202;28;20038;-77
2024/03/04 03:55:26;;;;;;;75.65;34.30;;;;;;;5.80;100.00;99965.09;5071558;28;20024;-78
2024/03/04 03:57:51;;;;;;;80.93;30.77;;;;;;;5.76;100.00;99968.28;5089491;28;20039;-78
2024/03/04 04:00:18;;;;;;;95.50;39.67;;;;;;;5.86;100.00;99979.34;5088922;28;20404;-78
2024/03/04 04:02:43;;;;;;;80.30;30.90;;;;;;;5.60;100.00;99959.59;5090209;28;20040;-77
2024/03/04 04:05:09;;;;;;;64.78;28.05;;;;;;;5.56;100.00;99962.81;5089858;28;20039;-77
2024/03/04 04:07:34;;;;;;;90.70;30.60;;;;;;;5.43;100.00;99945.81;5071482;28;20065;-77
2024/03/04 04:09:59;;;;;;;84.00;28.67;;;;;;;5.67;100.00;99964.94;5089534;28;20412;-77
2024/03/04 04:12:25;;;;;;;62.97;25.33;;;;;;;5.63;100.00;99971.63;5089382;28;20028;-77
2024/03/04 04:14:50;;;;;;;77.22;28.27;;;;;;;5.68;100.00;99979.00;5089372;28;20189;-77
2024/03/04 04:17:16;;;;;;;98.95;28.42;;;;;;;5.72;100.00;99975.78;5071254;28;20160;-77
2024/03/04 04:19:41;;;;;;;53.65;24.85;;;;;;;5.77;100.00;99969.94;5089464;28;20094;-79
2024/03/04 04:22:06;;;;;;;78.65;28.08;;;;;;;5.96;100.00;99985.19;5089615;28;20024;-78
2024/03/04 04:24:32;;;;;;;72.45;26.67;;;;;;;5.80;100.00;99962.44;5070971;28;20047;-78
2024/03/04 04:26:57;;;;;;;67.53;26.88;;;;;;;5.82;100.00;99956.94;5088834;28;20043;-78
2024/03/04 04:29:23;;;;;;;66.95;27.25;;;;;;;5.83;100.00;99969.16;5089000;28;20027;-78
2024/03/04 04:31:48;;;;;;;86.53;26.75;;;;;;;5.94;100.00;99967.81;5089509;28;20024;-78
2024/03/04 04:34:14;;;;;;;96.60;27.77;;;;;;;6.17;100.00;99972.91;5089058;28;20039;-78
2024/03/04 04:36:50;;;;;;;92.50;25.02;;;;;;;6.27;100.00;99985.84;5088805;28;20024;-77
2024/03/04 04:39:15;;;;;;;70.75;24.58;;;;;;;6.29;100.00;99979.31;5088826;28;20059;-78
2024/03/04 04:41:40;;;;;;;79.40;25.15;;;;;;;6.14;100.00;99971.47;5070943;28;20052;-79
2024/03/04 04:44:06;;;;;;;78.35;25.33;;;;;;;5.92;100.00;99946.03;5070931;28;20028;-79
2024/03/04 04:46:32;;;;;;;77.40;25.73;;;;;;;5.88;100.00;99964.09;5070474;28;20193;-78
2024/03/04 04:48:57;;;;;;;84.90;26.42;;;;;;;5.77;100.00;99951.41;5088556;28;20515;-78
2024/03/04 04:51:22;;;;;;;62.22;23.65;;;;;;;5.81;100.00;99979.94;5088564;28;20043;-78
2024/03/04 04:53:48;;;;;;;67.65;24.63;;;;;;;5.76;100.00;99978.84;5088331;28;20173;-77
2024/03/04 04:56:20;;;;;;;66.55;24.48;;;;;;;5.83;100.00;99963.88;5088312;28;20516;-78
2024/03/04 04:58:45;;;;;;;62.97;26.67;;;;;;;5.60;100.00;99949.00;5087449;28;20024;-78
2024/03/04 05:01:10;;;;;;;76.63;24.50;;;;;;;5.79;100.00;99962.63;5088590;28;20032;-77
2024/03/04 05:03:36;;;;;;;58.35;24.15;;;;;;;5.74;100.00;99946.47;5088219;28;20101;-77
2024/03/04 05:06:02;;;;;;;69.93;24.98;;;;;;;6.13;100.00;99991.03;5069968;28;20064;-78
2024/03/04 05:08:27;;;;;;;51.00;22.15;;;;;;;6.00;100.00;100002.31;5087787;28;20024;-77
2024/03/04 05:10:53;;;;;;;102.40;40.47;;;;;;;5.89;100.00;99997.53;5081213;28;20455;-78
2024/03/04 05:13:20;;;;;;;67.43;25.08;;;;;;;5.78;100.00;99998.84;5088434;28;20027;-78
2024/03/04 05:15:46;;;;;;;53.55;23.13;;;;;;;5.71;100.00;99983.91;5088334;28;20522;-78
2024/03/04 05:18:11;;;;;;;70.97;25.35;;;;;;;5.77;100.00;100007.78;5087675;28;20032;-78
2024/03/04 05:20:36;;;;;;;73.43;28.77;;;;;;;6.19;100.00;100010.63;5086747;28;20073;-79
2024/03/04 05:23:02;;;;;;;66.15;27.08;;;;;;;6.20;100.00;100006.97;5087688;28;20016;-79
2024/03/04 05:25:27;;;;;;;111.50;42.88;;;;;;;6.27;100.00;100005.19;5078059;28;20473;-78
2024/03/04 05:27:52;;;;;;;95.25;36.83;;;;;;;6.47;100.00;100007.16;5087817;28;20927;-78
2024/03/04 05:30:18;;;;;;;133.57;56.50;;;;;;;6.72;100.00;100020.78;5071412;28;20032;-77
2024/03/04 05:32:44;;;;;;;95.68;32.70;;;;;;;6.74;100.00;100024.91;5075139;28;20145;-78
2024/03/04 05:35:11;;;;;;;94.90;36.72;;;;;;;6.68;100.00;100030.97;5087646;28;20070;-77
2024/03/04 05:37:37;;;;;;;236.93;198.88;;;;;;;6.87;100.00;100036.59;5076808;28;20073;-78
2024/03/04 05:40:09;;;;;;;82.93;46.15;;;;;;;6.77;100.00;100021.84;5087327;28;20048;-78
2024/03/04 05:42:41;;;;;;;68.63;26.05;;;;;;;7.02;100.00;100032.78;5085352;28;20028;-79
2024/03/04 05:45:09;;;;;;;80.25;33.83;;;;;;;6.84;100.00;100041.25;5088153;28;20107;-77
2024/03/04 05:47:35;;;;;;;74.05;33.20;;;;;;;6.91;100.00;100051.91;5087688;28;20081;-78
2024/03/04 05:50:05;;;;;;;64.85;27.83;;;;;;;6.86;100.00;100054.31;5087433;28;20032;-78
2024/03/04 05:52:31;;;;;;;86.82;31.13;;;;;;;6.98;100.00;100058.03;5068103;28;20035;-77
2024/03/04 05:54:56;;;;;;;67.72;31.65;;;;;;;7.17;100.00;100030.00;5069463;28;20024;-78
2024/03/04 05:57:21;;;;;;;84.43;43.53;;;;;;;7.33;100.00;100041.28;5069602;28;20465;-78
2024/03/04 05:59:47;;;;;;;78.82;47.33;;;;;;;6.95;100.00;100020.53;5087491;28;20020;-79
2024/03/04 06:02:12;;;;;;;99.65;32.85;;;;;;;7.10;100.00;100060.97;5077752;28;20028;-79
2024/03/04 06:04:38;;;;;;;104.45;35.38;;;;;;;7.02;100.00;100069.09;5087590;28;20755;-78
2024/03/04 06:07:03;;;;;;;77.18;32.17;;;;;;;7.08;100.00;100052.41;5076950;28;20031;-78
2024/03/04 06:09:28;;;;;;;102.68;33.35;;;;;;;7.09;100.00;100054.03;5087452;28;20034;-77
2024/03/04 06:11:54;;;;;;;85.40;33.47;;;;;;;7.04;100.00;100038.69;5087275;28;20062;-78
2024/03/04 06:14:20;;;;;;;73.90;27.48;;;;;;;7.14;100.00;100064.88;5083243;28;20396;-79
2024/03/04 06:16:46;;;;;;;71.22;27.02;;;;;;;7.20;100.00;100050.81;5078273;28;20036;-79
2024/03/04 06:19:11;;;;;;;98.85;27.02;;;;;;;7.29;100.00;100066.56;5091426;28;20062;-79
2024/03/04 06:21:37;;;;;;;73.88;27.23;;;;;;;7.40;100.00;100058.06;5085094;28;20036;-78
2024/03/04 06:24:03;;;;;;;84.68;25.23;;;;;;;7.45;100.00;100052.97;5098120;28;20050;-78
2024/03/04 06:26:28;;;;;;;70.30;28.48;;;;;;;7.59;100.00;100067.91;5097635;28;20182;-79
2024/03/04 06:28:54;;;;;;;87.47;28.70;;;;;;;7.59;100.00;100054.66;5096527;28;20080;-78
2024/03/04 06:31:19;;;;;;;78.80;28.90;;;;;;;7.87;100.00;100064.31;5097407;28;20086;-78
2024/03/04 06:33:45;;;;;;;76.85;29.92;;;;;;;7.75;100.00;100064.09;5095999;28;20054;-78
2024/03/04 06:36:10;;;;;;;78.35;24.95;;;;;;;7.77;100.00;100051.44;5097543;28;20016;-77
2024/03/04 06:38:35;;;;;;;76.57;27.10;;;;;;;7.65;100.00;100048.53;5089782;28;20057;-78
2024/03/04 06:41:03;;;;;;;95.03;27.70;;;;;;;7.58;100.00;100053.03;5091510;28;20459;-78
2024/03/04 06:43:28;;;;;;;64.97;26.60;;;;;;;7.50;100.00;100039.94;5089350;28;20032;-79
2024/03/04 06:45:54;;;;;;;78.38;30.42;;;;;;;7.62;100.00;100045.47;5089955;28;20101;-78
2024/03/04 06:48:19;;;;;;;77.55;29.33;;;;;;;7.40;100.00;100050.91;5088144;28;20477;-78
2024/03/04 06:50:46;;;;;;;77.78;30.83;;;;;;;7.53;100.00;100068.72;5092517;28;20020;-78
2024/03/04 06:53:12;;;;;;;99.22;39.60;;;;;;;7.57;100.00;100055.88;5092873;28;20047;-78
2024/03/04 06:55:37;;;;;;;85.70;29.17;;;;;;;7.57;100.00;100061.97;5092005;28;20116;-79
2024/03/04 06:58:03;;;;;;;81.63;31.42;;;;;;;7.55;100.00;100057.91;5080964;28;20138;-79
2024/03/04 07:00:29;;;;;;;99.18;38.13;;;;;;;7.39;100.00;100051.91;5089027;28;20054;-78
2024/03/04 07:02:54;;;;;;;99.57;39.90;;;;;;;7.82;100.00;100042.84;5086828;28;20028;-79
2024/03/04 07:05:20;;;;;;;111.90;40.28;;;;;;;7.82;100.00;100053.47;5084195;28;20035;-78
2024/03/04 07:07:45;;;;;;;129.52;44.65;;;;;;;7.75;100.00;100042.84;5083856;28;20032;-79
2024/03/04 07:10:11;;;;;;;102.32;40.25;;;;;;;7.57;100.00;100014.22;5069252;28;20028;-78
2024/03/04 07:12:37;;;;;;;89.22;35.00;;;;;;;7.68;100.00;100034.03;5076088;28;20486;-78
2024/03/04 07:15:04;;;;;;;82.75;33.08;;;;;;;7.42;100.00;100034.81;5068852;28;20122;-78
2024/03/04 07:17:30;;;;;;;102.50;39.80;;;;;;;7.62;100.00;100043.63;5081756;28;20028;-78
2024/03/04 07:19:55;;;;;;;92.93;34.33;;;;;;;7.55;100.00;100040.13;5086517;28;20528;-78
2024/03/04 07:22:21;;;;;;;76.13;29.48;;;;;;;7.80;100.00;100050.19;5087737;28;20500;-78
2024/03/04 07:24:46;;;;;;;89.45;34.58;;;;;;;7.45;100.00;100021.13;5100570;28;20082;-77
2024/03/04 07:27:11;;;;;;;82.13;33.33;;;;;;;7.70;100.00;100039.16;5085094;28;20039;-78
2024/03/04 07:29:37;;;;;;;91.07;33.75;;;;;;;7.72;100.00;100037.94;5072387;28;20123;-78
2024/03/04 07:32:02;;;;;;;79.07;32.20;;;;;;;7.69;100.00;100032.22;5106090;28;20039;-78
2024/03/04 07:34:28;;;;;;;86.75;34.78;;;;;;;8.01;100.00;100041.28;5090020;28;20610;-78
2024/03/04 07:36:54;;;;;;;82.78;32.83;;;;;;;8.03;100.00;100034.72;5072110;28;20045;-78
2024/03/04 07:39:22;;;;;;;78.65;33.55;;;;;;;8.19;100.00;100027.38;5090203;28;20039;-78
2024/03/04 07:41:47;;;;;;;;;;;;;;;8.40;100.00;100034.34;5090549;28;20111;-78
2024/03/04 07:44:12;;;;;;;99.38;52.40;;;;;;;8.30;100.00;100045.38;5072038;28;19916;-78
2024/03/04 07:46:38;;;;;;;79.82;32.05;;;;;;;8.59;100.00;100060.09;5090105;28;20401;-77
2024/03/04 07:49:03;;;;;;;75.65;30.27;;;;;;;8.74;100.00;100057.22;5089890;28;20074;-78
2024/03/04 07:51:29;;;;;;;79.75;30.13;;;;;;;8.98;100.00;100068.22;5089838;28;20540;-77
2024/03/04 07:53:54;;;;;;;69.07;28.92;;;;;;;8.56;100.00;100051.72;5071882;28;20042;-78
2024/03/04 07:56:19;;;;;;;70.18;28.77;;;;;;;8.49;100.00;100048.25;5089642;28;20481;-77
2024/03/04 07:58:45;;;;;;;86.03;38.90;;;;;;;8.61;100.00;100049.28;5089834;28;20421;-77
2024/03/04 08:01:11;;;;;;;72.50;30.25;;;;;;;8.58;100.00;100052.31;5089489;28;20027;-78
2024/03/04 08:03:37;;;;;;;74.43;28.75;;;;;;;8.64;100.00;100047.03;5090023;28;20401;-78
2024/03/04 08:06:02;;;;;;;76.28;29.83;;;;;;;8.62;100.00;100064.19;5089843;28;20039;-77
2024/03/04 08:08:28;;;;;;;74.80;31.50;;;;;;;8.83;100.00;100074.59;5088757;28;20651;-77
2024/03/04 08:10:53;;;;;;;83.93;31.98;;;;;;;8.76;100.00;100057.81;5089589;28;20464;-77
2024/03/04 08:13:18;;;;;;;84.40;31.88;;;;;;;8.63;100.00;100055.19;5071129;28;20028;-77
2024/03/04 08:15:44;;;;;;;69.45;29.77;;;;;;;9.11;100.00;100078.81;5089442;28;20537;-77
2024/03/04 08:18:09;;;;;;;74.10;30.33;;;;;;;8.94;100.00;100064.34;5082582;28;20025;-77
2024/03/04 08:20:35;;;;;;;104.43;52.88;;;;;;;8.99;100.00;100060.06;5089495;28;20031;-78
2024/03/04 08:23:02;;;;;;;71.47;32.53;;;;;;;9.07;100.00;100055.50;5089702;28;20043;-77
2024/03/04 08:25:28;;;;;;;67.47;28.65;;;;;;;9.13;100.00;100052.81;5089399;28;20097;-78
2024/03/04 08:27:53;;;;;;;68.50;29.30;;;;;;;9.40;100.00;100066.06;5088915;28;20051;-77
2024/03/04 08:30:19;;;;;;;89.53;41.88;;;;;;;9.47;100.00;100040.22;5088706;28;20031;-78
2024/03/04 08:32:44;;;;;;;74.63;31.98;;;;;;;9.59;100.00;100043.84;5089281;28;20039;-78
2024/03/04 08:35:10;;;;;;;128.32;66.78;;;;;;;9.62;100.00;100067.41;5070741;28;20059;-77
2024/03/04 08:37:36;;;;;;;76.25;36.13;;;;;;;9.30;100.00;100023.13;5088886;28;20024;-78
2024/03/04 08:40:04;;;;;;;75.22;34.42;;;;;;;9.31;100.00;100040.69;5070338;28;20028;-77
2024/03/04 08:42:30;;;;;;;83.70;42.70;;;;;;;9.51;100.00;100062.72;5089189;28;20712;-77
2024/03/04 08:44:56;;;;;;;83.57;43.05;;;;;;;9.79;100.00;100053.59;5088772;28;20044;-77
2024/03/04 08:47:22;;;;;;;69.22;29.27;;;;;;;9.92;100.00;100045.50;5088922;28;20035;-77
2024/03/04 08:49:47;;;;;;;67.32;29.35;;;;;;;9.93;100.00;100055.13;5088457;28;20028;-78
2024/03/04 08:52:13;;;;;;;68.38;30.38;;;;;;;9.91;100.00;100030.56;5085963;28;20478;-77
2024/03/04 08:54:38;;;;;;;68.35;30.13;;;;;;;9.94;100.00;100050.63;5096255;28;20032;-77
2024/03/04 08:57:05;;;;;;;63.95;28.95;;;;;;;10.21;100.00;100033.41;5066020;28;20901;-77
2024/03/04 08:59:31;;;;;;;67.90;30.67;;;;;;;10.19;100.00;100042.66;5088154;28;20520;-77
2024/03/04 09:01:56;;;;;;;83.65;40.95;;;;;;;10.04;100.00;100005.66;5086929;28;20039;-76
2024/03/04 09:04:22;;;;;;;102.25;48.35;;;;;;;10.36;100.00;100022.47;5087068;28;20095;-76
2024/03/04 09:06:49;;;;;;;69.80;33.05;;;;;;;10.27;100.00;100013.88;5088150;28;20079;-78
2024/03/04 09:09:14;;;;;;;58.53;28.30;;;;;;;10.47;100.00;100022.78;5087954;28;20028;-76
2024/03/04 09:11:40;;;;;;;143.80;75.07;;;;;;;11.13;100.00;100000.72;5082347;28;20032;-76
2024/03/04 09:14:05;;;;;;;66.93;34.03;;;;;;;11.12;100.00;100031.13;5078709;28;20059;-77
2024/03/04 09:16:31;;;;;;;62.78;30.05;;;;;;;10.59;100.00;100029.03;5072838;28;20576;-79
2024/03/04 09:18:56;;;;;;;51.25;25.92;;;;;;;10.28;100.00;100030.69;5085378;28;20046;-78
2024/03/04 09:21:24;;;;;;;56.17;28.35;;;;;;;10.16;100.00;100016.44;5076737;28;20469;-77
2024/03/04 09:23:50;;;;;;;59.33;32.72;;;;;;;10.90;100.00;100029.94;5086192;28;20046;-78
2024/03/04 09:26:17;;;;;;;58.60;28.50;;;;;;;11.08;100.00;100026.47;5100092;28;20051;-78
2024/03/04 09:28:50;;;;;;;56.50;28.05;;;;;;;11.22;100.00;100004.72;5080616;28;20039;-78
2024/03/04 09:31:16;;;;;;;51.40;27.40;;;;;;;11.04;100.00;100024.22;5069735;28;20524;-79
2024/03/04 09:33:41;;;;;;;54.47;27.50;;;;;;;10.82;100.00;100005.16;5087879;28;20100;-78
2024/03/04 09:36:07;;;;;;;53.22;25.85;;;;;;;11.06;100.00;100021.34;5087351;28;20027;-79
2024/03/04 09:38:32;;;;;;;51.13;25.02;;;;;;;11.23;100.00;100026.88;5087549;28;20508;-78
2024/03/04 09:40:59;;;;;;;48.80;25.88;;;;;;;11.92;100.00;100013.25;5087530;28;20421;-78
2024/03/04 09:43:28;;;;;;;50.25;26.55;;;;;;;11.69;100.00;100012.13;5087817;28;20055;-77
2024/03/04 09:45:53;;;;;;;53.92;24.38;;;;;;;11.35;100.00;99984.22;5087169;28;20024;-78
2024/03/04 09:48:21;;;;;;;51.72;25.52;;;;;;;11.37;100.00;99995.50;5069452;28;20134;-77
2024/03/04 09:50:47;;;;;;;51.70;25.45;;;;;;;11.40;100.00;100016.41;5087213;28;20039;-78
2024/03/04 09:53:15;;;;;;;50.78;26.02;;;;;;;11.08;100.00;99989.91;5067647;28;20035;-78
2024/03/04 09:55:41;;;;;;;56.97;27.38;;;;;;;11.29;100.00;100003.81;5059625;28;20028;-78
2024/03/04 09:58:08;;;;;;;54.30;25.77;;;;;;;11.60;100.00;100000.91;5086948;28;20035;-77
2024/03/04 10:00:35;;;;;;;55.92;28.45;;;;;;;11.21;100.00;99963.03;5087504;28;20505;-77
2024/03/04 10:03:03;;;;;;;53.60;27.42;;;;;;;11.51;100.00;99980.13;5087186;28;20032;-77
2024/03/04 10:05:29;;;;;;;59.47;27.63;;;;;;;11.90;100.00;99989.44;5087403;28;20048;-77
2024/03/04 10:07:55;;;;;;;52.95;27.45;;;;;;;12.01;100.00;99969.94;5068797;28;20020;-78
2024/03/04 10:10:20;;;;;;;49.88;25.83;;;;;;;11.42;100.00;99971.59;5087342;28;20088;-77
2024/03/04 10:12:47;;;;;;;51.00;27.08;;;;;;;11.91;100.00;99961.69;5086666;28;20643;-78
2024/03/04 10:15:13;;;;;;;49.72;27.60;;;;;;;11.99;100.00;99947.13;5086990;28;20177;-79
2024/03/04 10:17:40;;;;;;;48.97;25.70;;;;;;;12.04;100.00;99974.00;5087571;28;20028;-78
2024/03/04 10:20:07;;;;;;;50.20;25.95;;;;;;;12.12;100.00;99975.53;5086554;28;20043;-78
2024/03/04 10:22:33;;;;;;;47.55;24.73;;;;;;;12.07;100.00;99970.84;5068470;28;20507;-78
2024/03/04 10:25:04;;;;;;;62.67;32.47;;;;;;;12.02;100.00;99976.91;5086817;28;20035;-78
2024/03/04 10:27:31;;;;;;;60.55;33.75;;;;;;;12.48;100.00;99963.78;5085072;28;20056;-78
2024/03/04 10:30:16;;;;;;;51.13;26.15;;;;;;;12.86;100.00;99987.34;5062909;28;20032;-78
2024/03/04 10:32:52;;;;;;;55.70;27.80;;;;;;;12.60;100.00;99974.47;5081155;28;20020;-78
2024/03/04 10:35:19;;;;;;;51.75;26.50;;;;;;;12.70;100.00;99977.38;5054119;28;20035;-79
2024/03/04 10:37:45;;;;;;;49.15;26.40;;;;;;;13.04;100.00;99981.03;5076337;28;20687;-77
2024/03/04 10:40:11;;;;;;;47.15;25.98;;;;;;;13.20;100.00;99971.44;5065466;28;20028;-77
2024/03/04 10:42:42;;;;;;;51.65;25.45;;;;;;;13.50;100.00;99970.41;5079030;28;20043;-77
2024/03/04 10:45:08;;;;;;;49.60;30.55;;;;;;;14.32;100.00;99966.38;5086928;28;20021;-77
2024/03/04 10:47:35;;;;;;;44.38;30.45;;;;;;;14.95;100.00;99955.44;5084504;28;20048;-77
2024/03/04 10:50:04;;;;;;;38.83;26.40;;;;;;;15.32;100.00;99962.81;5086429;28;20036;-77
2024/03/04 10:52:29;;;;;;;39.65;24.77;;;;;;;15.23;100.00;99947.16;5086010;28;20038;-78
2024/03/04 10:54:55;;;;;;;32.60;26.73;;;;;;;15.00;100.00;99950.94;5078960;28;20024;-77
2024/03/04 10:57:32;;;;;;;22.63;15.70;;;;;;;15.35;83.07;99968.50;5064555;28;20032;-78
2024/03/04 11:00:27;;;;;;;22.70;14.77;;;;;;;15.45;81.56;99973.19;5090135;28;20032;-77
2024/03/04 11:03:16;;;;;;;23.88;16.95;;;;;;;15.63;82.24;99953.19;5027656;28;20041;-77
2024/03/04 11:05:50;;;;;;;25.77;17.48;;;;;;;16.65;79.16;99953.97;4997092;28;20550;-77
2024/03/04 11:08:27;;;;;;;31.73;25.23;;;;;;;16.03;77.20;99938.50;5016090;28;21249;-76